Huvudsida
METAR-TAF:

METAR-TAF

Flygplatser :

Pantelleria, Italien

latitud: 36-49N, longitud: 011-58E, höjd: 191 m

Aktuellt väderrapport

Denna rapport gjordes för 2 timmar och 23 minuter sedan, klockan 18:50 UTC
Vind 14 kt från väst
Temperatur 15°C
Fuktighet 100%
Tryck 1017 hPa
Sikt 10 km eller mer
Spridda moln på en höjd av 1000 ft

METAR: LICG 141850Z 26014KT 9999 SCT010 15/15 Q1017

Tid: 22:13 (21:13 UTC)

Väderprognos

Denna rapport gjordes för 4 timmar och 13 minuter sedan, klockan 17:00 UTC
Prognos gäller från 14 kl. 18 UTC till 15 kl. 03 UTC
Vind 18 kt från väst i byarna ända upp till 28 kt
Sikt: 8000 m
Spridda moln på en höjd av 1000 ft

TAF: LICG 141700Z 1418/1503 26018G28KT 8000 SCT010

Aktuella väderrapporter och prognoser från 4000 flygplatser (METAR- och TAF-rapporter).

De tillgängliga stationerna syns som gula och röda prickar på kartan.

För musen över prickarna för att se namnen på stationerna.

Klicka sedan för att få väderrapporter och prognoser.

För att ändra kartan: Klicka på de gröna knapparna med ett svart kors på för att zooma in; den gröna knappen med ett streck på för att zooma ut; eller på de gröna pilarna för angränsande kartor.


METAR-TAF: